Time;durP1;ratioP1;P1;durP2;ratioP2;P2;SDS_P1;SDS_P2;PMS_P1;PMS_P2;Temp;Humidity;BMP_temperature;BMP_pressure;BME280_temperature;BME280_humidity;BME280_pressure;Samples;Min_cycle;Max_cycle;Signal;HPM_P1;HPM_P2
2021/10/20 00:00:36;;;;;;;13.48;6.95;;;;;;;9.79;76.77;100472.47;5075916;28;20131;-63
2021/10/20 00:03:08;;;;;;;13.98;6.88;;;;;;;9.76;76.43;100462.22;5075962;28;20119;-62
2021/10/20 00:05:41;;;;;;;12.23;6.82;;;;;;;9.76;76.60;100462.22;5075877;28;20041;-62
2021/10/20 00:08:10;;;;;;;12.68;6.88;;;;;;;9.87;77.18;100443.69;5075775;28;20125;-63
2021/10/20 00:10:44;;;;;;;11.57;7.50;;;;;;;9.89;77.14;100443.69;5076101;28;20076;-62
2021/10/20 00:13:15;;;;;;;13.93;6.70;;;;;;;9.91;76.54;100449.72;5075819;28;20527;-62
2021/10/20 00:15:48;;;;;;;13.90;7.22;;;;;;;10.00;76.06;100460.03;5075562;28;20119;-61
2021/10/20 00:18:21;;;;;;;13.07;7.13;;;;;;;10.00;76.17;100465.13;5075616;28;20055;-62
2021/10/20 00:20:54;;;;;;;12.82;7.03;;;;;;;9.95;76.84;100464.19;5075597;28;20048;-61
2021/10/20 00:23:23;;;;;;;13.48;7.72;;;;;;;9.92;77.53;100456.50;5075549;28;20048;-61
2021/10/20 00:25:54;;;;;;;13.70;7.80;;;;;;;9.88;76.52;100439.47;5075483;28;20048;-61
2021/10/20 00:28:25;;;;;;;13.20;7.15;;;;;;;9.86;77.55;100441.13;5075984;28;20135;-61
2021/10/20 00:30:57;;;;;;;14.52;8.20;;;;;;;9.90;77.55;100440.31;5075294;28;20461;-61
2021/10/20 00:33:30;;;;;;;12.45;7.32;;;;;;;9.91;76.82;100437.78;5075239;28;20047;-62
2021/10/20 00:35:59;;;;;;;15.85;8.13;;;;;;;9.96;77.02;100440.41;5075265;28;20071;-62
2021/10/20 00:38:28;;;;;;;17.85;8.90;;;;;;;9.98;77.52;100448.97;5075525;28;20110;-61
2021/10/20 00:41:04;;;;;;;15.35;8.32;;;;;;;10.00;77.79;100437.06;5075163;28;20053;-61
2021/10/20 00:43:35;;;;;;;16.45;8.68;;;;;;;10.04;77.30;100438.81;5075419;28;20433;-62
2021/10/20 00:46:07;;;;;;;15.43;8.10;;;;;;;10.06;77.82;100437.16;5075109;28;20052;-62
2021/10/20 00:48:40;;;;;;;14.60;8.50;;;;;;;9.97;77.68;100429.38;5075294;28;20453;-62
2021/10/20 00:51:12;;;;;;;15.20;7.40;;;;;;;9.97;77.52;100426.81;5074963;28;20524;-63
2021/10/20 00:53:44;;;;;;;13.18;7.32;;;;;;;10.02;77.47;100420.97;5075161;28;20521;-62
2021/10/20 00:56:17;;;;;;;16.05;8.23;;;;;;;10.06;77.78;100422.72;5075159;28;20037;-63
2021/10/20 00:58:48;;;;;;;15.52;8.80;;;;;;;10.07;77.87;100429.53;5074977;28;20040;-63
2021/10/20 01:01:18;;;;;;;13.88;8.00;;;;;;;10.10;77.70;100421.06;5074789;28;20044;-63
2021/10/20 01:03:51;;;;;;;12.98;7.85;;;;;;;10.19;77.64;100418.66;5074605;28;20045;-63
2021/10/20 01:06:23;;;;;;;13.13;7.80;;;;;;;10.19;77.90;100413.56;5074665;28;20068;-62
2021/10/20 01:08:55;;;;;;;13.75;8.18;;;;;;;10.19;77.69;100421.22;5074654;28;20047;-63
2021/10/20 01:11:25;;;;;;;14.07;7.80;;;;;;;10.24;77.60;100424.69;5074559;28;20052;-63
2021/10/20 01:13:58;;;;;;;12.77;7.53;;;;;;;10.15;77.87;100416.06;5074777;28;20058;-62
2021/10/20 01:16:31;;;;;;;14.43;7.78;;;;;;;10.24;78.04;100419.56;5074412;28;20040;-61
2021/10/20 01:19:05;;;;;;;13.65;7.60;;;;;;;10.32;77.50;100400.09;5074779;28;20128;-61
2021/10/20 01:21:38;;;;;;;13.13;8.02;;;;;;;10.43;77.78;100387.47;5075238;28;20044;-61
2021/10/20 01:24:11;;;;;;;13.77;8.00;;;;;;;10.25;77.94;100384.69;5074300;28;20131;-62
2021/10/20 01:26:43;;;;;;;14.25;6.90;;;;;;;10.19;77.20;100388.03;5074260;28;20058;-62
2021/10/20 01:29:16;;;;;;;12.10;7.25;;;;;;;10.26;77.80;100394.94;5074225;28;20063;-63
2021/10/20 01:31:49;;;;;;;13.00;7.68;;;;;;;10.40;77.55;100387.44;5074493;28;20048;-62
2021/10/20 01:34:20;;;;;;;15.52;7.68;;;;;;;10.43;77.11;100393.44;5074119;28;20044;-62
2021/10/20 01:37:01;;;;;;;11.30;7.28;;;;;;;10.43;77.77;100397.69;5074169;28;20043;-62
2021/10/20 01:39:38;;;;;;;13.77;7.47;;;;;;;10.45;77.28;100401.97;5074090;28;20056;-61
2021/10/20 01:42:07;;;;;;;12.30;7.60;;;;;;;10.48;78.04;100402.00;5074061;28;20052;-61
2021/10/20 01:44:40;;;;;;;14.07;7.60;;;;;;;10.49;77.69;100393.50;5073058;28;20056;-61
2021/10/20 01:47:09;;;;;;;13.60;8.18;;;;;;;10.49;77.98;100393.50;5073936;28;20542;-61
2021/10/20 01:49:41;;;;;;;16.25;8.07;;;;;;;10.51;77.46;100386.69;5074185;28;20033;-61
2021/10/20 01:52:16;;;;;;;15.32;8.07;;;;;;;10.56;77.25;100379.94;5074217;28;20064;-62
2021/10/20 01:54:49;;;;;;;15.68;8.43;;;;;;;10.66;77.54;100376.66;5074056;28;20375;-63
2021/10/20 01:57:21;;;;;;;14.02;8.23;;;;;;;10.58;77.21;100368.06;5073779;28;20398;-63
2021/10/20 01:59:51;;;;;;;13.02;7.90;;;;;;;10.61;77.14;100357.88;5072916;28;20590;-63
2021/10/20 02:02:25;;;;;;;14.13;7.72;;;;;;;10.62;77.05;100349.41;5073763;28;20048;-63
2021/10/20 02:05:15;;;;;;;12.85;7.85;;;;;;;10.62;76.75;100359.63;5073666;28;20102;-62
2021/10/20 02:07:52;;;;;;;14.10;7.38;;;;;;;10.64;76.99;100365.59;5073977;28;20556;-61
2021/10/20 02:10:24;;;;;;;17.05;7.38;;;;;;;10.70;76.91;100362.25;5073961;28;20117;-62
2021/10/20 02:12:57;;;;;;;13.57;7.72;;;;;;;10.67;76.37;100340.09;5073642;28;20059;-62
2021/10/20 02:15:30;;;;;;;13.35;7.78;;;;;;;10.67;76.67;100340.09;5073456;28;20045;-62
2021/10/20 02:18:03;;;;;;;15.40;7.78;;;;;;;10.62;76.17;100339.19;5073562;28;20049;-62
2021/10/20 02:20:36;;;;;;;12.90;8.32;;;;;;;10.63;76.13;100340.03;5073544;28;20052;-62
2021/10/20 02:23:06;;;;;;;13.35;7.88;;;;;;;10.60;76.32;100350.22;5073473;28;20049;-62
2021/10/20 02:25:42;;;;;;;12.82;7.38;;;;;;;10.55;76.56;100346.78;5073752;28;20176;-63
2021/10/20 02:28:14;;;;;;;14.10;7.72;;;;;;;10.59;77.13;100354.47;5073468;28;20102;-63
2021/10/20 02:30:47;;;;;;;14.75;8.60;;;;;;;10.57;77.39;100350.19;5073327;28;20052;-62
2021/10/20 02:33:20;;;;;;;15.23;8.68;;;;;;;10.55;77.09;100347.63;5073418;28;20072;-62
2021/10/20 02:35:52;;;;;;;16.95;8.00;;;;;;;10.51;78.10;100337.38;5073928;28;20070;-62
2021/10/20 02:38:25;;;;;;;14.25;7.97;;;;;;;10.52;77.73;100337.38;5073686;28;20151;-62
2021/10/20 02:40:58;;;;;;;13.60;8.48;;;;;;;10.57;77.58;100340.84;5073324;28;20049;-62
2021/10/20 02:43:33;;;;;;;15.50;7.78;;;;;;;10.59;77.96;100339.16;5073631;28;20048;-62
2021/10/20 02:46:05;;;;;;;17.73;8.68;;;;;;;10.63;77.77;100335.78;5073624;28;20076;-62
2021/10/20 02:48:37;;;;;;;15.40;9.50;;;;;;;10.62;78.35;100339.19;5073536;28;20402;-62
2021/10/20 02:51:11;;;;;;;14.93;8.90;;;;;;;10.56;77.85;100343.34;5073462;28;20040;-63
2021/10/20 02:53:42;;;;;;;15.27;8.65;;;;;;;10.64;77.90;100337.50;5073189;28;20056;-63
2021/10/20 02:56:14;;;;;;;15.98;7.65;;;;;;;10.73;78.13;100337.59;5076668;28;20036;-63
2021/10/20 02:58:44;;;;;;;15.43;8.45;;;;;;;10.72;77.71;100333.31;5077143;28;20131;-63
2021/10/20 03:01:16;;;;;;;14.32;7.38;;;;;;;10.75;77.42;100325.69;5076911;28;20048;-62
2021/10/20 03:03:46;;;;;;;13.10;7.90;;;;;;;10.81;77.40;100330.00;5077327;28;20573;-61
2021/10/20 03:06:17;;;;;;;12.18;7.85;;;;;;;10.82;77.22;100331.72;5076967;28;20090;-61
2021/10/20 03:08:51;;;;;;;12.57;7.43;;;;;;;10.84;77.16;100339.38;5058453;28;20135;-61
2021/10/20 03:11:23;;;;;;;12.88;7.35;;;;;;;10.83;77.73;100332.53;5076845;28;20052;-63
2021/10/20 03:13:57;;;;;;;15.88;8.98;;;;;;;10.89;77.15;100327.50;5077201;28;20059;-63
2021/10/20 03:16:29;;;;;;;17.20;8.55;;;;;;;10.97;77.42;100313.09;5076698;28;20131;-63
2021/10/20 03:19:01;;;;;;;16.00;9.15;;;;;;;10.96;76.62;100325.03;5076716;28;20127;-63
2021/10/20 03:21:33;;;;;;;16.02;9.13;;;;;;;10.96;76.58;100329.28;5076660;28;20076;-61
2021/10/20 03:24:11;;;;;;;19.88;10.30;;;;;;;10.97;77.06;100318.19;5076995;28;20052;-62
2021/10/20 03:26:43;;;;;;;18.75;10.15;;;;;;;10.93;76.54;100317.31;5076615;28;20045;-61
2021/10/20 03:29:15;;;;;;;15.48;9.00;;;;;;;10.81;76.96;100313.81;5076576;28;20078;-61
2021/10/20 03:31:47;;;;;;;17.05;9.05;;;;;;;10.66;77.20;100300.06;5076775;28;20418;-61
2021/10/20 03:34:19;;;;;;;16.15;8.80;;;;;;;10.75;77.58;100300.16;5076428;28;20053;-62
2021/10/20 03:36:52;;;;;;;14.57;8.63;;;;;;;10.81;77.02;100301.03;5076308;28;20041;-62
2021/10/20 03:39:25;;;;;;;16.20;8.30;;;;;;;10.75;76.91;100309.50;5076446;28;20047;-62
2021/10/20 03:41:58;;;;;;;16.63;7.78;;;;;;;10.77;77.03;100303.56;5076617;28;20102;-62
2021/10/20 03:44:30;;;;;;;14.63;8.88;;;;;;;10.76;77.69;100301.88;5076544;28;20090;-62
2021/10/20 03:47:03;;;;;;;14.77;8.40;;;;;;;10.73;76.95;100301.84;5076571;28;20072;-61
2021/10/20 03:49:35;;;;;;;14.10;8.32;;;;;;;10.67;77.42;100296.69;5076146;28;20056;-61
2021/10/20 03:52:07;;;;;;;15.60;7.57;;;;;;;10.64;77.77;100289.00;5076358;28;20095;-63
2021/10/20 03:54:41;;;;;;;12.95;8.00;;;;;;;10.66;77.24;100274.53;5076426;28;20117;-63
2021/10/20 03:57:11;;;;;;;14.50;7.63;;;;;;;10.74;77.54;100283.13;5075982;28;20068;-63
2021/10/20 03:59:42;;;;;;;14.30;8.60;;;;;;;10.68;77.37;100288.19;5075156;28;20052;-62
2021/10/20 04:02:13;;;;;;;12.98;7.50;;;;;;;10.65;77.76;100288.13;5076268;28;20048;-61
2021/10/20 04:04:43;;;;;;;13.00;7.93;;;;;;;10.61;78.28;100286.41;5058123;28;20127;-61
2021/10/20 04:07:15;;;;;;;13.15;7.28;;;;;;;10.61;77.82;100280.44;5074865;28;20099;-61
2021/10/20 04:09:49;;;;;;;13.70;7.72;;;;;;;10.70;78.24;100281.38;5075850;28;20049;-62
2021/10/20 04:12:22;;;;;;;11.45;7.10;;;;;;;10.63;77.98;100277.06;5058160;28;20044;-62
2021/10/20 04:14:54;;;;;;;15.68;7.78;;;;;;;10.65;78.50;100277.09;5076070;28;20045;-62
2021/10/20 04:17:27;;;;;;;12.98;6.93;;;;;;;10.62;78.19;100266.84;5075949;28;20121;-62
2021/10/20 04:19:59;;;;;;;12.70;7.18;;;;;;;10.63;77.96;100264.31;5075630;28;20053;-62
2021/10/20 04:22:32;;;;;;;12.73;6.82;;;;;;;10.63;77.97;100258.34;5075751;28;20048;-62
2021/10/20 04:25:07;;;;;;;13.13;7.50;;;;;;;10.64;78.50;100254.94;5075541;28;20041;-63
2021/10/20 04:27:41;;;;;;;13.10;7.93;;;;;;;10.75;78.46;100259.28;5075717;28;20117;-62
2021/10/20 04:30:12;;;;;;;12.35;6.95;;;;;;;10.75;77.84;100256.75;5075395;28;20090;-63
2021/10/20 04:32:48;;;;;;;11.07;7.22;;;;;;;10.78;78.48;100258.47;5075747;28;20135;-63
2021/10/20 04:35:25;;;;;;;14.02;7.93;;;;;;;10.76;78.71;100255.91;5075190;28;20045;-63
2021/10/20 04:37:55;;;;;;;15.75;7.75;;;;;;;10.75;78.78;100263.53;5075604;28;20036;-62
2021/10/20 04:40:29;;;;;;;13.98;7.88;;;;;;;10.76;78.52;100260.16;5075180;28;20056;-62
2021/10/20 04:43:01;;;;;;;11.35;7.30;;;;;;;10.85;79.24;100267.03;5075358;28;20490;-62
2021/10/20 04:45:33;;;;;;;15.07;9.25;;;;;;;10.92;79.20;100261.97;5075131;28;20056;-63
2021/10/20 04:48:03;;;;;;;16.40;9.18;;;;;;;10.95;78.48;100273.91;5074944;28;20044;-62
2021/10/20 04:50:38;;;;;;;17.08;9.02;;;;;;;10.95;78.65;100271.34;5074960;28;20043;-63
2021/10/20 04:53:07;;;;;;;16.15;8.60;;;;;;;10.95;78.37;100271.34;5074897;28;20075;-63
2021/10/20 04:55:53;;;;;;;12.00;7.38;;;;;;;10.97;78.75;100279.88;5074843;28;20048;-63
2021/10/20 04:58:22;;;;;;;17.52;9.38;;;;;;;10.98;78.68;100276.50;4993443;28;20054;-63
2021/10/20 05:00:54;;;;;;;14.07;7.13;;;;;;;10.94;78.21;100269.66;4993275;28;20054;-62
2021/10/20 05:03:24;;;;;;;15.18;8.50;;;;;;;10.98;78.20;100254.38;4993671;28;20062;-62
2021/10/20 05:05:56;;;;;;;14.25;8.43;;;;;;;11.02;78.52;100262.88;4993468;28;20047;-61
2021/10/20 05:08:31;;;;;;;15.38;8.68;;;;;;;10.99;78.12;100258.63;4993413;28;20153;-62
2021/10/20 05:11:05;;;;;;;14.48;8.20;;;;;;;10.92;78.84;100258.59;4993327;28;20084;-62
2021/10/20 05:13:34;;;;;;;15.38;8.25;;;;;;;10.86;78.78;100250.88;4976996;28;20070;-62
2021/10/20 05:16:04;;;;;;;16.38;9.00;;;;;;;10.97;78.86;100256.91;4993283;28;20476;-63
2021/10/20 05:18:36;;;;;;;17.23;9.70;;;;;;;11.03;78.75;100254.41;4993020;28;20056;-63
2021/10/20 05:21:11;;;;;;;16.35;9.00;;;;;;;11.07;79.04;100253.56;4993232;28;20053;-63
2021/10/20 05:23:50;;;;;;;;;;;;;;;;;;;;;
2021/10/20 05:26:38;;;;;;;18.92;10.25;;;;;;;11.04;78.53;100246.72;4935330;29;20118;-63
2021/10/20 05:29:08;;;;;;;17.38;9.40;;;;;;;11.02;78.05;100252.69;4935336;29;20383;-63
2021/10/20 05:31:40;;;;;;;;;;;;;;;11.03;78.05;100264.63;4935644;29;20527;-63
2021/10/20 05:34:15;;;;;;;16.08;9.65;;;;;;;11.05;78.07;100255.25;4934983;29;19929;-63
2021/10/20 05:36:45;;;;;;;14.10;8.75;;;;;;;11.13;77.75;100251.91;4989303;28;20058;-61
2021/10/20 05:39:15;;;;;;;18.55;9.23;;;;;;;11.15;77.23;100249.38;4992720;28;20516;-61
2021/10/20 05:41:50;;;;;;;18.67;9.93;;;;;;;11.22;77.11;100236.66;4992951;28;20595;-61
2021/10/20 05:44:23;;;;;;;16.30;10.13;;;;;;;11.11;76.76;100242.53;5032013;28;20056;-62
2021/10/20 05:46:55;;;;;;;21.23;11.98;;;;;;;11.12;77.01;100244.22;5073954;28;20048;-62
2021/10/20 05:49:27;;;;;;;22.27;12.38;;;;;;;11.09;76.87;100231.44;5073787;28;20074;-63
2021/10/20 05:52:00;;;;;;;20.23;12.77;;;;;;;11.18;76.70;100236.63;5073852;28;20050;-61
2021/10/20 05:54:35;;;;;;;18.73;11.60;;;;;;;11.07;77.02;100210.13;5073820;28;20056;-62
2021/10/20 05:57:06;;;;;;;18.90;11.35;;;;;;;11.20;76.93;100237.47;5074034;28;20071;-63
2021/10/20 05:59:39;;;;;;;19.17;11.32;;;;;;;11.28;76.79;100246.03;5072679;28;20060;-62
2021/10/20 06:02:14;;;;;;;19.13;10.85;;;;;;;11.32;76.34;100237.53;5073902;28;20152;-63
2021/10/20 06:04:46;;;;;;;18.48;10.55;;;;;;;11.38;76.80;100227.34;5073869;28;20186;-63
2021/10/20 06:07:19;;;;;;;16.90;9.70;;;;;;;11.40;76.49;100225.63;5073681;28;20092;-62
2021/10/20 06:09:51;;;;;;;16.50;9.70;;;;;;;11.42;76.82;100224.81;5073866;28;20498;-63
2021/10/20 06:12:25;;;;;;;17.23;9.70;;;;;;;11.36;77.07;100219.69;5073575;28;20048;-63
2021/10/20 06:14:57;;;;;;;19.42;10.23;;;;;;;11.38;77.35;100217.13;5073796;28;20123;-62
2021/10/20 06:17:26;;;;;;;17.63;9.85;;;;;;;11.43;77.11;100213.75;5073743;28;20402;-62
2021/10/20 06:19:59;;;;;;;15.68;9.68;;;;;;;11.54;76.93;100213.75;5073425;28;20033;-62
2021/10/20 06:22:31;;;;;;;15.82;9.82;;;;;;;11.58;76.69;100214.66;5073792;28;20224;-63
2021/10/20 06:25:04;;;;;;;16.13;9.63;;;;;;;11.53;76.44;100217.19;5073500;28;20052;-62
2021/10/20 06:27:38;;;;;;;16.63;10.30;;;;;;;11.38;76.79;100206.88;5073417;28;20044;-63
2021/10/20 06:30:11;;;;;;;17.88;10.25;;;;;;;11.43;76.55;100206.06;5072832;28;20058;-63
2021/10/20 06:32:45;;;;;;;19.08;10.38;;;;;;;11.37;76.80;100202.66;5073635;28;20127;-63
2021/10/20 06:35:14;;;;;;;19.20;10.60;;;;;;;11.26;77.26;100207.69;5073297;28;20056;-63
2021/10/20 06:37:53;;;;;;;18.08;10.50;;;;;;;11.41;77.80;100201.81;5073188;28;20512;-62
2021/10/20 06:40:26;;;;;;;14.20;9.88;;;;;;;11.54;77.42;100203.53;5073283;28;20408;-61
2021/10/20 06:43:01;;;;;;;21.85;11.70;;;;;;;11.63;77.65;100203.59;5073288;28;20054;-62
2021/10/20 06:45:34;;;;;;;22.30;11.80;;;;;;;11.68;77.69;100206.19;5073532;28;20143;-62
2021/10/20 06:48:04;;;;;;;28.98;12.82;;;;;;;11.78;77.34;100203.66;5073391;28;20048;-62
2021/10/20 06:50:36;;;;;;;21.95;11.10;;;;;;;11.86;77.49;100212.22;5073190;28;20079;-62
2021/10/20 06:53:06;;;;;;;16.02;10.35;;;;;;;11.88;77.32;100209.66;5073178;28;20052;-63
2021/10/20 06:55:38;;;;;;;;;;;;;;;11.86;76.82;100214.78;5073880;28;20048;-63
2021/10/20 06:58:12;;;;;;;19.20;10.88;;;;;;;11.95;76.30;100221.59;5073262;28;19920;-62
2021/10/20 07:00:41;;;;;;;16.40;10.45;;;;;;;12.04;76.12;100216.53;5072865;28;20084;-63
2021/10/20 07:03:11;;;;;;;17.50;10.68;;;;;;;12.20;75.74;100222.50;5073653;28;20041;-63
2021/10/20 07:05:43;;;;;;;19.77;10.45;;;;;;;12.29;75.47;100227.63;5073303;28;20041;-62
2021/10/20 07:08:13;;;;;;;17.05;10.23;;;;;;;12.32;75.19;100227.66;5073314;28;20044;-63
2021/10/20 07:10:46;;;;;;;16.27;9.52;;;;;;;12.33;74.79;100226.81;5073211;28;20150;-61
2021/10/20 07:13:17;;;;;;;16.95;9.60;;;;;;;12.45;74.27;100234.50;5073276;28;20552;-63
2021/10/20 07:15:50;;;;;;;16.50;9.35;;;;;;;12.57;74.08;100229.38;5073195;28;20056;-63
2021/10/20 07:18:19;;;;;;;17.52;9.38;;;;;;;12.61;73.60;100225.97;5072560;28;20052;-63
2021/10/20 07:20:49;;;;;;;17.02;9.60;;;;;;;12.48;73.20;100208.88;5072666;28;20048;-62
2021/10/20 07:23:18;;;;;;;15.90;9.23;;;;;;;12.65;72.74;100241.31;5072919;28;20123;-62
2021/10/20 07:25:47;;;;;;;12.52;6.95;;;;;;;12.55;72.44;100215.69;5073131;28;20548;-62
2021/10/20 07:28:18;;;;;;;14.15;8.85;;;;;;;12.75;72.03;100237.03;5072657;28;20041;-62
2021/10/20 07:30:48;;;;;;;14.13;8.88;;;;;;;12.66;71.84;100203.75;5073032;28;20048;-62
2021/10/20 07:33:17;;;;;;;;;;;;;;;12.92;71.41;100237.88;5073033;28;20045;-62
2021/10/20 07:35:46;;;;;;;13.57;9.07;;;;;;;12.96;71.12;100234.44;5072585;28;19924;-63
2021/10/20 07:38:16;;;;;;;13.80;8.43;;;;;;;12.84;70.97;100224.22;5072743;28;20044;-62
2021/10/20 07:40:49;;;;;;;16.42;8.48;;;;;;;12.87;70.98;100226.78;5073010;28;20075;-62
2021/10/20 07:43:20;;;;;;;14.70;8.68;;;;;;;13.02;70.67;100225.91;5076282;28;20509;-62
2021/10/20 07:45:52;;;;;;;18.65;8.75;;;;;;;13.03;70.30;100225.91;5076166;28;20068;-62
2021/10/20 07:48:22;;;;;;;15.25;8.75;;;;;;;13.14;70.01;100229.34;5076126;28;20088;-63
2021/10/20 07:50:51;;;;;;;;;;;;;;;13.19;69.88;100240.44;5076895;28;20061;-62
2021/10/20 07:53:20;;;;;;;19.85;8.93;;;;;;;13.19;69.55;100235.31;5075868;28;19927;-63
2021/10/20 07:55:53;;;;;;;17.35;9.00;;;;;;;13.24;69.35;100241.28;5076280;28;20169;-63
2021/10/20 07:58:23;;;;;;;17.52;9.65;;;;;;;13.21;69.10;100240.44;5075778;28;20047;-62
2021/10/20 08:00:53;;;;;;;14.30;8.68;;;;;;;13.08;69.10;100243.84;5075732;28;20090;-63
2021/10/20 08:03:22;;;;;;;;;;;;;;;13.13;69.00;100240.44;5076257;28;20048;-62
2021/10/20 08:05:55;;;;;;;9.80;5.87;;;;;;;13.13;68.97;100237.88;5075722;28;20366;-62
2021/10/20 08:08:24;;;;;;;14.98;8.50;;;;;;;13.03;68.94;100217.38;5076057;28;20058;-62
2021/10/20 08:11:00;;;;;;;12.93;8.05;;;;;;;13.18;68.62;100235.28;5075633;28;20102;-62
2021/10/20 08:13:31;;;;;;;13.82;8.57;;;;;;;13.23;68.39;100233.56;5076112;28;20071;-62
2021/10/20 08:16:00;;;;;;;12.90;8.30;;;;;;;13.30;68.41;100225.88;5075773;28;20512;-62
2021/10/20 08:18:30;;;;;;;17.00;8.82;;;;;;;13.41;68.31;100218.97;5075574;28;20052;-63
2021/10/20 08:21:00;;;;;;;13.80;8.75;;;;;;;13.43;67.59;100207.03;5075505;28;20079;-62
2021/10/20 08:23:36;;;;;;;13.07;8.18;;;;;;;13.59;67.48;100217.22;5075480;28;20040;-63
2021/10/20 08:26:09;;;;;;;14.18;8.48;;;;;;;13.60;67.06;100211.25;5075464;28;20053;-63
2021/10/20 08:28:40;;;;;;;12.60;8.23;;;;;;;13.70;66.74;100207.78;5075738;28;20536;-62
2021/10/20 08:31:10;;;;;;;13.85;8.50;;;;;;;13.53;66.78;100179.66;5075318;28;20128;-62
2021/10/20 08:33:39;;;;;;;12.80;8.23;;;;;;;13.66;66.63;100199.22;5075171;28;20064;-63
2021/10/20 08:36:09;;;;;;;12.50;8.30;;;;;;;13.73;66.38;100206.03;5075492;28;20033;-63
2021/10/20 08:38:38;;;;;;;14.32;8.45;;;;;;;13.80;66.31;100206.84;5075251;28;20469;-62
2021/10/20 08:41:11;;;;;;;13.35;8.00;;;;;;;13.88;66.08;100211.09;5075011;28;20051;-62
2021/10/20 08:43:45;;;;;;;13.10;7.70;;;;;;;13.74;65.23;100166.69;5075092;28;20048;-62
2021/10/20 08:46:21;;;;;;;12.25;7.97;;;;;;;14.29;65.93;100197.97;5075014;28;20049;-62
2021/10/20 08:48:50;;;;;;;13.93;8.05;;;;;;;14.49;65.60;100205.56;5075222;28;20079;-62
2021/10/20 08:51:22;;;;;;;17.80;9.02;;;;;;;14.45;64.58;100199.59;5074967;28;20091;-62
2021/10/20 08:53:56;;;;;;;14.43;8.48;;;;;;;14.47;63.95;100200.44;5074461;28;20051;-62
2021/10/20 08:56:29;;;;;;;15.65;8.38;;;;;;;14.47;63.75;100187.59;5074897;28;20528;-62
2021/10/20 08:59:03;;;;;;;13.65;7.97;;;;;;;14.59;63.63;100184.06;5074548;28;20048;-62
2021/10/20 09:01:33;;;;;;;13.25;8.40;;;;;;;14.68;63.24;100174.53;5034883;28;20051;-62
2021/10/20 09:04:05;;;;;;;11.93;7.82;;;;;;;14.72;63.49;100176.25;5035185;28;20099;-62
2021/10/20 09:06:36;;;;;;;10.88;7.70;;;;;;;14.69;64.36;100168.56;5034772;28;20060;-61
2021/10/20 09:09:08;;;;;;;14.23;8.20;;;;;;;14.77;64.69;100165.91;5034728;28;20057;-63
2021/10/20 09:11:41;;;;;;;11.98;8.52;;;;;;;14.82;64.41;100153.00;5035028;28;20052;-63
2021/10/20 09:14:19;;;;;;;13.52;8.50;;;;;;;14.88;63.35;100152.94;5034722;28;20050;-62
2021/10/20 09:16:48;;;;;;;13.50;8.40;;;;;;;14.97;62.97;100148.53;5034762;28;20060;-62
2021/10/20 09:19:31;;;;;;;14.15;8.30;;;;;;;15.21;62.41;100137.97;5034485;28;20051;-62
2021/10/20 09:22:03;;;;;;;15.90;9.23;;;;;;;15.27;62.09;100119.06;5034908;28;20054;-62
2021/10/20 09:24:37;;;;;;;12.40;7.72;;;;;;;15.37;60.96;100133.50;5034442;28;20057;-62
2021/10/20 09:27:20;;;;;;;14.35;7.93;;;;;;;15.40;61.04;100133.47;5034469;28;20136;-62
2021/10/20 09:30:09;;;;;;;14.07;8.05;;;;;;;15.42;60.60;100098.28;5034413;28;20124;-63
2021/10/20 09:32:42;;;;;;;13.18;7.95;;;;;;;15.58;59.83;100125.53;5034327;28;20049;-62
2021/10/20 09:35:15;;;;;;;17.33;8.95;;;;;;;15.87;60.15;100119.97;5034605;28;20061;-63
2021/10/20 09:37:48;;;;;;;15.73;8.63;;;;;;;16.13;60.11;100111.81;5033136;28;20099;-62
2021/10/20 09:40:17;;;;;;;12.30;8.63;;;;;;;16.14;58.37;100108.38;5034122;28;20042;-62
2021/10/20 09:42:51;;;;;;;12.52;8.27;;;;;;;16.14;57.96;100105.81;5034458;28;20221;-63
2021/10/20 09:45:31;;;;;;;11.50;8.05;;;;;;;16.41;58.27;100097.63;5034048;28;20168;-62
2021/10/20 09:48:11;;;;;;;12.82;8.20;;;;;;;16.64;57.92;100103.22;5034391;28;20132;-63
2021/10/20 09:50:54;;;;;;;12.75;8.48;;;;;;;16.72;57.54;100098.78;5034155;28;20113;-62
2021/10/20 09:53:27;;;;;;;14.30;8.05;;;;;;;16.55;57.18;100099.09;5034185;28;20049;-62
2021/10/20 09:56:01;;;;;;;11.40;7.90;;;;;;;16.59;57.07;100097.31;5033891;28;20483;-63
2021/10/20 09:58:34;;;;;;;10.48;7.25;;;;;;;16.75;57.11;100093.56;5033956;28;20131;-63
2021/10/20 10:01:05;;;;;;;11.75;8.13;;;;;;;16.90;56.53;100084.69;5066477;28;20053;-62
2021/10/20 10:03:42;;;;;;;11.63;7.88;;;;;;;17.04;56.23;100090.41;5073404;28;20040;-62
2021/10/20 10:06:12;;;;;;;10.35;7.00;;;;;;;17.20;55.16;100082.31;5073608;28;20053;-62
2021/10/20 10:08:42;;;;;;;8.88;6.00;;;;;;;17.24;55.06;100080.53;5073510;28;20078;-62
2021/10/20 10:11:11;;;;;;;;;;;;;;;17.21;54.46;100076.28;5073892;28;20052;-63
2021/10/20 10:13:44;;;;;;;9.20;6.00;;;;;;;17.34;54.14;100084.63;5073438;28;20049;-62
2021/10/20 10:16:19;;;;;;;11.63;6.40;;;;;;;17.54;53.82;100068.72;5078604;28;20074;-62
2021/10/20 10:18:50;;;;;;;10.48;5.45;;;;;;;17.71;52.50;100066.59;5073769;28;20075;-62
2021/10/20 10:21:30;;;;;;;9.93;6.07;;;;;;;17.81;51.87;100057.75;5073260;28;20048;-62
2021/10/20 10:24:02;;;;;;;10.07;6.35;;;;;;;17.93;51.88;100062.59;5073476;28;20048;-62
2021/10/20 10:26:36;;;;;;;8.85;6.30;;;;;;;18.21;51.53;100053.28;5073400;28;20049;-62
2021/10/20 10:29:12;;;;;;;8.40;6.20;;;;;;;18.27;51.19;100045.38;5073420;28;20110;-63
2021/10/20 10:31:46;;;;;;;9.75;6.53;;;;;;;18.26;50.64;100043.66;5073452;28;20080;-62
2021/10/20 10:34:20;;;;;;;9.50;6.63;;;;;;;18.38;50.19;100030.41;5073404;28;20048;-62
2021/10/20 10:36:53;;;;;;;9.90;6.60;;;;;;;18.48;49.93;100024.16;5073708;28;20047;-63
2021/10/20 10:39:30;;;;;;;8.45;5.53;;;;;;;18.43;49.15;100014.78;5073378;28;20052;-63
2021/10/20 10:42:04;;;;;;;9.13;5.20;;;;;;;18.79;50.14;100007.81;5073376;28;20045;-63
2021/10/20 10:44:47;;;;;;;9.45;5.47;;;;;;;18.95;48.96;100003.88;5073645;28;20048;-63
2021/10/20 10:47:25;;;;;;;9.25;5.70;;;;;;;18.97;47.70;100002.06;5073570;28;20457;-62
2021/10/20 10:49:56;;;;;;;10.10;5.03;;;;;;;19.09;47.82;99999.97;5073488;28;20402;-63
2021/10/20 10:52:34;;;;;;;8.90;5.07;;;;;;;19.15;47.71;99991.16;5073217;28;20343;-62
2021/10/20 10:55:12;;;;;;;8.93;5.68;;;;;;;19.28;47.36;99983.00;5073437;28;20434;-62
2021/10/20 10:57:44;;;;;;;8.15;5.22;;;;;;;19.23;46.57;99973.66;5073753;28;20090;-62
2021/10/20 11:00:28;;;;;;;7.32;4.93;;;;;;;19.42;45.83;99985.16;5072731;28;20071;-63
2021/10/20 11:03:00;;;;;;;9.80;5.72;;;;;;;19.52;45.81;99981.41;5073057;28;20057;-62
2021/10/20 11:05:33;;;;;;;8.75;5.70;;;;;;;19.65;45.44;99974.91;5073110;28;20048;-62
2021/10/20 11:08:09;;;;;;;7.00;4.90;;;;;;;19.54;44.69;99947.66;5073412;28;20143;-62
2021/10/20 11:10:40;;;;;;;9.90;5.10;;;;;;;19.54;44.68;99973.56;5073042;28;20131;-62
2021/10/20 11:13:12;;;;;;;7.18;4.90;;;;;;;19.25;44.71;99940.81;5072963;28;20041;-62
2021/10/20 11:15:46;;;;;;;6.85;4.45;;;;;;;19.51;45.02;99964.16;5073972;28;20498;-62
2021/10/20 11:18:21;;;;;;;7.70;5.18;;;;;;;19.67;44.83;99956.75;5077175;28;20493;-62
2021/10/20 11:20:50;;;;;;;7.75;4.68;;;;;;;19.73;44.65;99944.44;5076858;28;20051;-62
2021/10/20 11:23:20;;;;;;;8.80;4.75;;;;;;;19.66;44.11;99947.25;5077421;28;20040;-62
2021/10/20 11:26:01;;;;;;;7.32;4.90;;;;;;;19.53;44.37;99941.63;5076418;28;20047;-62
2021/10/20 11:28:37;;;;;;;7.43;4.80;;;;;;;19.63;44.46;99937.84;5076793;28;20045;-62
2021/10/20 11:31:10;;;;;;;8.02;5.45;;;;;;;19.69;44.67;99927.31;5076422;28;20052;-62
2021/10/20 11:33:45;;;;;;;7.70;5.53;;;;;;;19.79;44.69;99914.88;5076404;28;20057;-61
2021/10/20 11:36:19;;;;;;;11.18;6.00;;;;;;;19.74;44.97;99917.63;5076334;28;20518;-62
2021/10/20 11:38:49;;;;;;;7.82;4.85;;;;;;;19.77;44.35;99914.91;5076548;28;20075;-62
2021/10/20 11:41:20;;;;;;;8.35;5.00;;;;;;;19.69;44.39;99909.16;5076198;28;20052;-62
2021/10/20 11:43:55;;;;;;;9.73;4.75;;;;;;;19.53;44.78;99899.38;5076339;28;20131;-61
2021/10/20 11:46:28;;;;;;;8.02;5.18;;;;;;;19.67;44.88;99900.63;5076355;28;20397;-62